Time;durP1;ratioP1;P1;durP2;ratioP2;P2;SDS_P1;SDS_P2;PMS_P1;PMS_P2;Temp;Humidity;BMP_temperature;BMP_pressure;BME280_temperature;BME280_humidity;BME280_pressure;Samples;Min_cycle;Max_cycle;Signal;HPM_P1;HPM_P2
2021/12/01 00:00:17;;;;;;;9.07;4.00;;;0.90;99.90;;;;;;5034776;28;20014;-77
2021/12/01 00:02:42;;;;;;;16.98;4.90;;;1.00;99.90;;;;;;5037998;28;20043;-78
2021/12/01 00:05:09;;;;;;;9.73;4.70;;;1.00;99.90;;;;;;5031916;28;20115;-78
2021/12/01 00:07:36;;;;;;;14.98;6.28;;;1.00;99.90;;;;;;5032546;28;20021;-77
2021/12/01 00:10:07;;;;;;;13.75;6.22;;;0.90;99.90;;;;;;5029717;28;20010;-78
2021/12/01 00:12:33;;;;;;;10.23;5.45;;;0.90;99.90;;;;;;5032099;28;20109;-77
2021/12/01 00:14:59;;;;;;;7.78;3.83;;;0.90;99.90;;;;;;5032532;28;20857;-78
2021/12/01 00:17:26;;;;;;;9.55;4.30;;;0.90;99.90;;;;;;5035192;28;20043;-77
2021/12/01 00:19:52;;;;;;;11.18;5.13;;;0.90;99.90;;;;;;5034585;28;20041;-78
2021/12/01 00:22:18;;;;;;;9.85;3.88;;;0.80;99.90;;;;;;5035495;28;20033;-78
2021/12/01 00:24:43;;;;;;;10.70;6.00;;;0.80;99.90;;;;;;5034282;28;20029;-77
2021/12/01 00:27:09;;;;;;;11.07;4.68;;;0.80;99.90;;;;;;5034445;28;20070;-78
2021/12/01 00:29:35;;;;;;;6.22;3.67;;;0.70;99.90;;;;;;5033957;28;20026;-77
2021/12/01 00:32:02;;;;;;;7.60;3.20;;;0.70;99.90;;;;;;5032318;28;20017;-78
2021/12/01 00:34:27;;;;;;;7.80;3.80;;;0.70;99.90;;;;;;5034791;28;20055;-77
2021/12/01 00:36:53;;;;;;;6.20;3.85;;;0.70;99.90;;;;;;5035211;28;20021;-77
2021/12/01 00:39:19;;;;;;;7.57;5.03;;;0.70;99.90;;;;;;5036173;28;20021;-78
2021/12/01 00:41:45;;;;;;;9.40;5.68;;;0.70;99.90;;;;;;5032590;28;20504;-78
2021/12/01 00:44:11;;;;;;;10.75;4.50;;;0.70;99.90;;;;;;5042036;27;20104;-78
2021/12/01 00:46:40;;;;;;;11.13;6.05;;;0.70;99.90;;;;;;5035915;28;20022;-78
2021/12/01 00:49:07;;;;;;;8.48;4.72;;;0.60;99.90;;;;;;5035538;28;20052;-78
2021/12/01 00:51:32;;;;;;;9.60;4.10;;;0.60;99.90;;;;;;5032353;28;20021;-79
2021/12/01 00:53:58;;;;;;;8.18;4.75;;;0.60;99.90;;;;;;5031290;28;20125;-77
2021/12/01 00:56:23;;;;;;;12.52;5.50;;;0.60;99.90;;;;;;5034746;28;20022;-77
2021/12/01 00:58:51;;;;;;;7.80;4.03;;;0.60;99.90;;;;;;5034882;28;20093;-77
2021/12/01 01:01:17;;;;;;;9.45;4.22;;;0.50;99.90;;;;;;5036814;28;20359;-78
2021/12/01 01:03:42;;;;;;;7.90;5.35;;;0.50;99.90;;;;;;5033502;28;20032;-78
2021/12/01 01:06:09;;;;;;;10.30;5.47;;;0.50;99.90;;;;;;5029231;28;20108;-78
2021/12/01 01:08:35;;;;;;;10.05;4.90;;;0.60;99.90;;;;;;5035597;28;20029;-78
2021/12/01 01:16:25;;;;;;;8.60;5.57;;;0.60;99.90;;;;;;5036627;28;20032;-78
2021/12/01 01:18:58;;;;;;;8.75;4.75;;;0.60;99.90;;;;;;5033702;28;20040;-78
2021/12/01 01:21:26;;;;;;;6.13;4.15;;;0.60;99.90;;;;;;5032584;28;20018;-78
2021/12/01 01:23:52;;;;;;;5.20;3.00;;;0.60;99.90;;;;;;5035065;28;20623;-78
2021/12/01 01:26:20;;;;;;;5.10;3.20;;;0.60;99.90;;;;;;5036932;28;20069;-78
2021/12/01 01:28:46;;;;;;;5.05;3.28;;;0.60;99.90;;;;;;5034570;28;20561;-78
2021/12/01 01:31:12;;;;;;;7.60;3.33;;;0.60;99.90;;;;;;5033881;28;20122;-78
2021/12/01 01:33:38;;;;;;;4.43;2.70;;;0.60;99.90;;;;;;5033720;28;20022;-77
2021/12/01 01:36:04;;;;;;;6.40;3.65;;;0.60;99.90;;;;;;5035630;28;20017;-78
2021/12/01 01:38:32;;;;;;;7.05;2.67;;;0.60;99.90;;;;;;5039403;28;20541;-78
2021/12/01 01:41:00;;;;;;;5.55;2.60;;;0.60;99.90;;;;;;5036381;28;20056;-78
2021/12/01 01:43:25;;;;;;;8.95;4.35;;;0.70;99.90;;;;;;5037778;28;20116;-78
2021/12/01 01:45:52;;;;;;;3.83;3.03;;;0.60;99.90;;;;;;5034615;28;20137;-78
2021/12/01 01:48:22;;;;;;;5.63;2.47;;;0.60;99.90;;;;;;5035517;28;20060;-78
2021/12/01 01:50:48;;;;;;;7.43;2.88;;;0.70;99.90;;;;;;5036329;28;20029;-78
2021/12/01 01:53:23;;;;;;;10.18;5.28;;;0.70;99.90;;;;;;5034197;28;20059;-78
2021/12/01 01:55:52;;;;;;;11.25;5.28;;;0.70;99.90;;;;;;5037439;28;20351;-77
2021/12/01 01:58:18;;;;;;;14.30;8.80;;;0.70;99.90;;;;;;5031825;28;20375;-78
2021/12/01 02:00:52;;;;;;;32.60;16.10;;;0.70;99.90;;;;;;5034410;28;20029;-78
2021/12/01 02:03:19;;;;;;;21.30;9.57;;;0.70;99.90;;;;;;5033579;28;20026;-77
2021/12/01 02:05:45;;;;;;;23.27;10.90;;;0.70;99.90;;;;;;5032268;28;20470;-78
2021/12/01 02:08:20;;;;;;;15.75;6.32;;;0.70;99.90;;;;;;5032103;28;20466;-78
2021/12/01 02:10:50;;;;;;;8.60;3.35;;;0.70;99.90;;;;;;5039164;28;20013;-78
2021/12/01 02:13:17;;;;;;;6.95;3.65;;;0.70;99.90;;;;;;5039004;28;20051;-78
2021/12/01 02:15:44;;;;;;;14.63;8.23;;;0.70;99.90;;;;;;5030555;28;20029;-78
2021/12/01 02:18:10;;;;;;;9.77;5.75;;;0.70;99.90;;;;;;5035798;28;20017;-78
2021/12/01 02:20:36;;;;;;;2.95;2.58;;;0.70;99.90;;;;;;5034010;28;20033;-77
2021/12/01 02:23:02;;;;;;;3.63;2.10;;;0.70;99.90;;;;;;5034180;28;20414;-78
2021/12/01 02:25:28;;;;;;;12.93;6.22;;;0.70;99.90;;;;;;5033255;28;20029;-77
2021/12/01 02:27:55;;;;;;;3.65;2.53;;;0.70;99.90;;;;;;5034635;28;20010;-77
2021/12/01 02:30:22;;;;;;;4.85;2.88;;;0.70;99.90;;;;;;5034712;28;20045;-77
2021/12/01 02:32:48;;;;;;;4.63;2.15;;;0.70;99.90;;;;;;5037707;28;20430;-78
2021/12/01 02:35:14;;;;;;;2.00;1.90;;;0.70;99.90;;;;;;5036793;28;20045;-78
2021/12/01 02:37:40;;;;;;;6.78;3.97;;;0.70;99.90;;;;;;5037211;28;20784;-78
2021/12/01 02:40:07;;;;;;;3.80;2.10;;;0.70;99.90;;;;;;5037194;28;20025;-77
2021/12/01 02:42:32;;;;;;;13.63;4.80;;;0.70;99.90;;;;;;5036472;28;20037;-78
2021/12/01 02:44:59;;;;;;;4.32;2.20;;;0.60;99.90;;;;;;5035185;28;20056;-77
2021/12/01 02:47:26;;;;;;;7.95;2.80;;;0.60;99.90;;;;;;5034140;28;20429;-78
2021/12/01 02:49:54;;;;;;;4.32;2.70;;;0.60;99.90;;;;;;5032811;27;20026;-78
2021/12/01 02:52:21;;;;;;;3.97;3.15;;;0.60;99.90;;;;;;5030976;28;20021;-77
2021/12/01 02:54:47;;;;;;;2.10;1.90;;;0.60;99.90;;;;;;5037544;28;20070;-78
2021/12/01 02:57:12;;;;;;;15.00;4.93;;;0.50;99.90;;;;;;5036093;28;20029;-78
2021/12/01 02:59:39;;;;;;;5.63;3.28;;;0.50;99.90;;;;;;5032556;28;20021;-78
2021/12/01 03:02:05;;;;;;;16.42;8.07;;;0.50;99.90;;;;;;5031030;28;20022;-77
2021/12/01 03:04:31;;;;;;;6.18;3.00;;;0.50;99.90;;;;;;5035340;28;20042;-78
2021/12/01 03:06:58;;;;;;;5.38;3.25;;;0.50;99.90;;;;;;5036410;28;20032;-78
2021/12/01 03:09:26;;;;;;;5.55;3.97;;;0.50;99.90;;;;;;5036428;28;20462;-78
2021/12/01 03:11:52;;;;;;;11.38;4.03;;;0.50;99.90;;;;;;5032572;28;20014;-78
2021/12/01 03:14:19;;;;;;;9.73;3.85;;;0.40;99.90;;;;;;5034709;28;20080;-78
2021/12/01 03:16:48;;;;;;;8.70;3.40;;;0.40;99.90;;;;;;5039913;28;20029;-78
2021/12/01 03:19:15;;;;;;;8.13;3.10;;;0.40;99.90;;;;;;5041488;28;20025;-77
2021/12/01 03:21:42;;;;;;;7.05;3.83;;;0.40;99.90;;;;;;5034856;28;20040;-78
2021/12/01 03:24:09;;;;;;;7.65;4.28;;;0.40;99.90;;;;;;5030432;28;20033;-78
2021/12/01 03:26:35;;;;;;;8.23;4.38;;;0.40;99.90;;;;;;5030193;28;20031;-77
2021/12/01 03:29:04;;;;;;;9.18;4.05;;;0.30;99.90;;;;;;5033553;28;20543;-78
2021/12/01 03:31:29;;;;;;;12.05;4.75;;;0.40;99.90;;;;;;5031358;28;20032;-77
2021/12/01 03:33:55;;;;;;;5.97;4.43;;;0.40;99.90;;;;;;5033798;28;20017;-77
2021/12/01 03:36:21;;;;;;;10.02;4.15;;;0.40;99.90;;;;;;5033988;28;20021;-78
2021/12/01 03:38:47;;;;;;;20.02;8.30;;;0.30;99.90;;;;;;5033845;28;20025;-77
2021/12/01 03:41:12;;;;;;;12.93;6.13;;;0.30;99.90;;;;;;5032832;28;20386;-78
2021/12/01 03:43:38;;;;;;;16.05;7.50;;;0.30;99.90;;;;;;5033160;28;20041;-77
2021/12/01 03:46:04;;;;;;;10.27;4.15;;;0.30;99.90;;;;;;5036738;28;20048;-78
2021/12/01 03:48:29;;;;;;;7.78;3.30;;;0.30;99.90;;;;;;5030486;28;20017;-77
2021/12/01 03:50:56;;;;;;;7.82;4.40;;;0.30;99.90;;;;;;5029657;28;20033;-77
2021/12/01 03:53:23;;;;;;;7.38;3.90;;;0.40;99.90;;;;;;5031438;28;20027;-78
2021/12/01 03:55:50;;;;;;;9.02;4.88;;;0.30;99.90;;;;;;5031867;28;20024;-78
2021/12/01 03:58:15;;;;;;;8.65;5.38;;;0.30;99.90;;;;;;5037104;28;20117;-78
2021/12/01 04:00:41;;;;;;;10.07;5.30;;;0.30;99.90;;;;;;5033653;28;20061;-78
2021/12/01 04:03:07;;;;;;;4.28;3.55;;;0.30;99.90;;;;;;5034358;28;20028;-77
2021/12/01 04:05:33;;;;;;;7.38;3.83;;;0.30;99.90;;;;;;5031673;28;20016;-77
2021/12/01 04:08:01;;;;;;;4.03;2.70;;;0.30;99.90;;;;;;5033275;28;20031;-77
2021/12/01 04:10:27;;;;;;;5.80;3.63;;;0.30;99.90;;;;;;5033852;28;20558;-77
2021/12/01 04:12:53;;;;;;;5.75;3.65;;;0.30;99.90;;;;;;5032266;28;20036;-78
2021/12/01 04:15:19;;;;;;;7.60;5.05;;;0.30;99.90;;;;;;5036510;28;20029;-78
2021/12/01 04:17:44;;;;;;;10.38;5.72;;;0.30;99.90;;;;;;5032782;28;20078;-77
2021/12/01 04:20:13;;;;;;;4.85;3.67;;;0.30;99.90;;;;;;5034539;28;20013;-78
2021/12/01 04:22:39;;;;;;;5.55;3.38;;;0.30;99.90;;;;;;5034082;28;20017;-78
2021/12/01 04:25:06;;;;;;;5.22;3.97;;;0.30;99.90;;;;;;5032715;28;20040;-78
2021/12/01 04:27:32;;;;;;;15.50;4.90;;;0.30;99.90;;;;;;5033935;27;20056;-77
2021/12/01 04:29:58;;;;;;;11.95;7.20;;;0.30;99.90;;;;;;5037337;28;20062;-77
2021/12/01 04:32:24;;;;;;;7.15;6.40;;;0.30;99.90;;;;;;5030640;28;20017;-77
2021/12/01 04:34:50;;;;;;;5.00;4.00;;;0.30;99.90;;;;;;5035567;28;20040;-77
2021/12/01 04:37:16;;;;;;;6.03;4.30;;;0.30;99.90;;;;;;5035486;28;20021;-77
2021/12/01 04:39:42;;;;;;;5.60;4.03;;;0.20;99.90;;;;;;5029689;28;20471;-77
2021/12/01 04:42:08;;;;;;;5.32;4.00;;;0.20;99.90;;;;;;5031383;28;20105;-77
2021/12/01 04:44:36;;;;;;;6.55;4.40;;;0.20;99.90;;;;;;5034091;28;20124;-78
2021/12/01 04:47:03;;;;;;;6.05;3.50;;;0.20;99.90;;;;;;5033074;28;20013;-78
2021/12/01 04:49:31;;;;;;;4.72;3.80;;;0.20;99.90;;;;;;5034468;28;20411;-77
2021/12/01 04:52:00;;;;;;;5.80;3.58;;;0.30;99.90;;;;;;5037795;28;20109;-77
2021/12/01 04:54:27;;;;;;;4.50;3.53;;;0.30;99.90;;;;;;5039047;28;20052;-78
2021/12/01 04:56:53;;;;;;;3.33;3.00;;;0.20;99.90;;;;;;5034556;28;20017;-77
2021/12/01 04:59:20;;;;;;;8.60;4.03;;;0.30;99.90;;;;;;5038454;28;20028;-77
2021/12/01 05:01:47;;;;;;;3.58;3.28;;;0.20;99.90;;;;;;5038661;28;20386;-78
2021/12/01 05:04:13;;;;;;;4.97;3.50;;;0.20;99.90;;;;;;5031987;28;20185;-77
2021/12/01 05:06:40;;;;;;;4.88;2.92;;;0.20;99.90;;;;;;5033483;28;20021;-79
2021/12/01 05:09:07;;;;;;;4.78;3.10;;;0.10;99.90;;;;;;5035113;28;20522;-78
2021/12/01 05:11:33;;;;;;;6.55;3.47;;;0.10;99.90;;;;;;5037824;28;20069;-77
2021/12/01 05:13:59;;;;;;;5.20;2.90;;;0.00;99.90;;;;;;5035520;28;20026;-78
2021/12/01 05:16:24;;;;;;;4.93;3.53;;;0.00;99.90;;;;;;5039112;28;20074;-78
2021/12/01 05:18:51;;;;;;;7.47;4.30;;;0.00;99.90;;;;;;5037894;28;20534;-77
2021/12/01 05:21:17;;;;;;;7.20;3.88;;;0.00;99.90;;;;;;5037970;28;20382;-77
2021/12/01 05:23:42;;;;;;;5.30;4.25;;;0.00;99.90;;;;;;5033410;28;20040;-77
2021/12/01 05:26:10;;;;;;;4.35;3.67;;;0.00;99.90;;;;;;5037277;28;20028;-78
2021/12/01 05:28:36;;;;;;;3.80;3.40;;;0.00;99.90;;;;;;5035867;28;20017;-77
2021/12/01 05:31:02;;;;;;;6.55;4.03;;;0.00;99.90;;;;;;5036130;28;20079;-78
2021/12/01 05:33:28;;;;;;;6.07;3.80;;;-0.10;99.90;;;;;;5039134;27;20026;-77
2021/12/01 05:35:53;;;;;;;10.38;4.40;;;-0.10;99.90;;;;;;5035645;28;20036;-77
2021/12/01 05:38:19;;;;;;;4.20;3.80;;;-0.10;99.90;;;;;;5038891;28;20056;-77
2021/12/01 05:40:47;;;;;;;6.50;4.85;;;-0.10;99.90;;;;;;5035292;28;20037;-78
2021/12/01 05:43:13;;;;;;;11.80;5.95;;;-0.10;99.90;;;;;;5033140;28;20029;-77
2021/12/01 05:45:39;;;;;;;9.73;5.72;;;-0.10;99.90;;;;;;5035247;28;20024;-77
2021/12/01 05:48:06;;;;;;;10.13;6.35;;;-0.10;99.90;;;;;;5030979;28;20022;-78
2021/12/01 05:50:32;;;;;;;12.50;6.43;;;-0.10;99.90;;;;;;5034057;28;20470;-77
2021/12/01 05:52:58;;;;;;;10.60;6.72;;;-0.10;99.90;;;;;;5028891;28;20022;-78
2021/12/01 05:55:23;;;;;;;11.05;6.93;;;-0.10;99.90;;;;;;5032554;28;20021;-77
2021/12/01 05:57:49;;;;;;;15.30;7.10;;;-0.10;99.90;;;;;;5036094;28;20017;-78
2021/12/01 06:00:16;;;;;;;11.20;6.90;;;-0.20;99.90;;;;;;5032023;28;20112;-77
2021/12/01 06:02:43;;;;;;;15.73;7.75;;;-0.20;99.90;;;;;;5032698;28;20054;-78
2021/12/01 06:05:09;;;;;;;13.45;7.53;;;-0.20;99.90;;;;;;5030581;27;20051;-78
2021/12/01 06:07:35;;;;;;;18.60;10.50;;;-0.20;99.90;;;;;;5037392;28;20053;-77
2021/12/01 06:10:02;;;;;;;13.18;7.78;;;-0.10;99.90;;;;;;5040110;28;20475;-77
2021/12/01 06:12:32;;;;;;;23.08;12.00;;;-0.10;99.90;;;;;;5033733;27;20037;-77
2021/12/01 06:14:59;;;;;;;23.17;10.27;;;-0.20;99.90;;;;;;5035320;28;20010;-77
2021/12/01 06:17:25;;;;;;;16.67;9.10;;;-0.20;99.90;;;;;;5032305;28;20645;-77
2021/12/01 06:19:52;;;;;;;16.73;9.02;;;-0.20;99.90;;;;;;5048592;27;20028;-77
2021/12/01 06:22:18;;;;;;;43.22;16.33;;;-0.10;99.90;;;;;;5037915;27;20044;-77
2021/12/01 06:24:43;;;;;;;39.28;14.85;;;-0.20;99.90;;;;;;5039286;27;20029;-77
2021/12/01 06:27:09;;;;;;;17.50;8.52;;;-0.10;99.90;;;;;;5034324;28;20032;-77
2021/12/01 06:29:36;;;;;;;15.45;8.30;;;-0.10;99.90;;;;;;5032889;27;20052;-77
2021/12/01 06:32:02;;;;;;;14.73;7.95;;;-0.10;99.90;;;;;;5036031;27;20101;-77
2021/12/01 06:34:28;;;;;;;33.20;14.85;;;-0.20;99.90;;;;;;5031908;27;20463;-78
2021/12/01 06:36:53;;;;;;;17.88;8.48;;;-0.10;99.90;;;;;;5030209;28;20042;-78
2021/12/01 06:39:19;;;;;;;32.28;13.35;;;-0.10;99.90;;;;;;5036161;28;20409;-77
2021/12/01 06:41:45;;;;;;;15.23;8.30;;;-0.10;99.90;;;;;;5030659;28;20109;-77
2021/12/01 06:44:11;;;;;;;26.10;10.75;;;-0.10;99.90;;;;;;5033068;28;20457;-77
2021/12/01 06:46:36;;;;;;;16.75;8.13;;;0.00;99.90;;;;;;5033716;27;20125;-77
2021/12/01 06:49:03;;;;;;;14.23;8.95;;;0.00;99.90;;;;;;5033354;28;20104;-77
2021/12/01 06:51:28;;;;;;;13.35;8.50;;;0.00;99.90;;;;;;5031316;28;20026;-77
2021/12/01 06:53:54;;;;;;;15.50;9.00;;;0.00;99.90;;;;;;5036271;28;20033;-77
2021/12/01 06:56:21;;;;;;;19.50;9.18;;;0.00;99.90;;;;;;5037254;28;20014;-77
2021/12/01 06:58:46;;;;;;;22.42;12.23;;;0.00;99.90;;;;;;5074572;27;20466;-77
2021/12/01 07:01:13;;;;;;;33.45;17.48;;;0.00;99.90;;;;;;5099904;27;20015;-78
2021/12/01 07:03:39;;;;;;;30.48;17.15;;;0.00;99.90;;;;;;5084571;27;20033;-77
2021/12/01 07:06:04;;;;;;;17.98;11.02;;;0.00;99.90;;;;;;5066735;27;20382;-78
2021/12/01 07:08:30;;;;;;;16.73;8.85;;;0.00;99.90;;;;;;5084395;27;20018;-77
2021/12/01 07:10:56;;;;;;;16.75;9.18;;;0.10;99.90;;;;;;5071825;27;20120;-78
2021/12/01 07:13:21;;;;;;;21.70;8.27;;;0.10;99.90;;;;;;5100742;27;20151;-77
2021/12/01 07:15:47;;;;;;;16.83;8.98;;;0.10;99.90;;;;;;5090259;27;20045;-77
2021/12/01 07:18:13;;;;;;;13.30;8.35;;;0.10;99.90;;;;;;5075643;27;20011;-77
2021/12/01 07:20:39;;;;;;;11.00;7.60;;;0.10;99.90;;;;;;5084557;27;20011;-78
2021/12/01 07:23:05;;;;;;;13.68;8.85;;;0.10;99.90;;;;;;5110102;27;20421;-77
2021/12/01 07:25:32;;;;;;;15.60;9.13;;;0.10;99.90;;;;;;5057150;27;20403;-77
2021/12/01 07:27:58;;;;;;;16.27;10.75;;;0.10;99.90;;;;;;5085242;27;20438;-77
2021/12/01 07:30:24;;;;;;;23.65;12.55;;;0.10;99.90;;;;;;5090360;27;20034;-78
2021/12/01 07:32:51;;;;;;;20.73;12.00;;;0.10;99.90;;;;;;5038883;28;20474;-78
2021/12/01 07:35:17;;;;;;;19.50;10.68;;;0.20;99.90;;;;;;5038998;28;20025;-77
2021/12/01 07:37:43;;;;;;;15.50;10.00;;;0.20;99.90;;;;;;5046397;27;20539;-78
2021/12/01 07:40:10;;;;;;;13.63;8.75;;;0.30;99.90;;;;;;5072749;27;20025;-77
2021/12/01 07:42:35;;;;;;;16.77;11.20;;;0.30;99.90;;;;;;5055331;27;20522;-77
2021/12/01 07:45:01;;;;;;;15.38;10.80;;;0.40;99.90;;;;;;5059433;27;20114;-77
2021/12/01 07:47:27;;;;;;;22.63;11.00;;;0.50;99.90;;;;;;5067087;27;20105;-77
2021/12/01 07:49:53;;;;;;;23.40;11.35;;;0.50;99.90;;;;;;5128700;27;20116;-77
2021/12/01 07:52:18;;;;;;;29.08;16.88;;;0.60;99.90;;;;;;5125135;27;20484;-77
2021/12/01 07:54:44;;;;;;;29.98;15.98;;;0.70;99.90;;;;;;5127463;27;20109;-77
2021/12/01 07:57:10;;;;;;;31.40;17.85;;;0.70;99.90;;;;;;5071561;27;20382;-77
2021/12/01 07:59:36;;;;;;;31.45;17.33;;;0.80;99.90;;;;;;5043448;27;20387;-77
2021/12/01 08:02:03;;;;;;;30.05;16.70;;;0.80;99.90;;;;;;5036927;27;20542;-78
2021/12/01 08:04:29;;;;;;;27.65;14.90;;;0.80;99.90;;;;;;5038927;28;20401;-77
2021/12/01 08:06:55;;;;;;;26.85;15.00;;;0.90;99.90;;;;;;5033187;28;20025;-77
2021/12/01 08:09:21;;;;;;;29.90;16.10;;;0.90;99.90;;;;;;5031733;28;20025;-77
2021/12/01 08:11:47;;;;;;;27.88;14.63;;;1.00;99.90;;;;;;5037314;28;20054;-78
2021/12/01 08:14:12;;;;;;;23.33;14.20;;;1.10;99.90;;;;;;5035880;27;20021;-77
2021/12/01 08:16:38;;;;;;;36.65;16.88;;;1.10;99.90;;;;;;5034236;28;20078;-77
2021/12/01 08:19:05;;;;;;;27.48;13.40;;;1.10;99.90;;;;;;5043302;27;20173;-77
2021/12/01 08:21:31;;;;;;;23.20;12.88;;;1.10;99.90;;;;;;5045603;27;20039;-77
2021/12/01 08:23:57;;;;;;;25.30;14.02;;;1.10;99.90;;;;;;5032960;27;20035;-76
2021/12/01 08:26:24;;;;;;;20.20;12.43;;;1.20;99.90;;;;;;5051722;27;20029;-76
2021/12/01 08:28:49;;;;;;;26.52;12.40;;;1.20;99.90;;;;;;5036919;28;20030;-75
2021/12/01 08:31:17;;;;;;;21.20;11.60;;;1.20;99.90;;;;;;5035073;27;20483;-76
2021/12/01 08:33:43;;;;;;;19.20;12.00;;;1.20;99.90;;;;;;5057319;27;20033;-76
2021/12/01 08:36:10;;;;;;;21.75;11.27;;;1.30;99.90;;;;;;5034476;28;20025;-76
2021/12/01 08:38:37;;;;;;;22.85;10.88;;;1.30;99.90;;;;;;5032188;28;20509;-75
2021/12/01 08:41:05;;;;;;;17.27;10.73;;;1.30;99.90;;;;;;5027900;28;20018;-75
2021/12/01 08:43:31;;;;;;;20.73;11.25;;;1.30;99.90;;;;;;5057035;27;20122;-75
2021/12/01 08:45:58;;;;;;;20.70;12.43;;;1.40;99.90;;;;;;5061259;27;20103;-75
2021/12/01 08:48:24;;;;;;;20.75;11.93;;;1.50;99.90;;;;;;5033189;28;20036;-75
2021/12/01 08:50:50;;;;;;;21.98;13.18;;;1.60;99.90;;;;;;5070358;27;20061;-76
2021/12/01 08:53:16;;;;;;;23.10;12.90;;;1.60;99.90;;;;;;5071672;27;20053;-76
2021/12/01 08:55:42;;;;;;;27.90;14.15;;;1.70;99.90;;;;;;5034492;28;20101;-76
2021/12/01 08:58:13;;;;;;;25.92;13.45;;;1.80;99.90;;;;;;5030108;27;20037;-76
2021/12/01 09:00:44;;;;;;;25.65;13.15;;;1.80;99.90;;;;;;5032839;28;20029;-76
2021/12/01 09:03:10;;;;;;;23.17;12.80;;;1.90;99.90;;;;;;5035418;27;20021;-76
2021/12/01 09:05:36;;;;;;;22.58;13.07;;;1.80;99.90;;;;;;5030786;28;20086;-76
2021/12/01 09:08:03;;;;;;;21.38;12.88;;;1.80;99.90;;;;;;5028181;28;20474;-76
2021/12/01 09:10:29;;;;;;;19.02;11.77;;;1.80;99.90;;;;;;5045218;28;20017;-76
2021/12/01 09:12:54;;;;;;;20.30;10.60;;;1.80;99.90;;;;;;5048201;28;20020;-76
2021/12/01 09:15:20;;;;;;;21.10;12.15;;;1.80;99.90;;;;;;5034999;28;20481;-76
2021/12/01 09:17:46;;;;;;;21.67;10.88;;;1.90;99.90;;;;;;5028294;28;20033;-76
2021/12/01 09:20:12;;;;;;;20.00;9.13;;;2.00;99.90;;;;;;5026579;28;20482;-76
2021/12/01 09:22:38;;;;;;;19.10;10.27;;;2.00;99.90;;;;;;5026443;28;20032;-76
2021/12/01 09:25:04;;;;;;;21.83;9.95;;;2.10;99.90;;;;;;5027276;28;20030;-76
2021/12/01 09:27:30;;;;;;;21.90;10.20;;;2.10;99.90;;;;;;5027318;28;20025;-76
2021/12/01 09:29:56;;;;;;;16.50;8.75;;;2.10;99.90;;;;;;5037795;28;20043;-76
2021/12/01 09:32:21;;;;;;;13.95;8.30;;;2.10;99.90;;;;;;5047768;28;20513;-77
2021/12/01 09:34:47;;;;;;;15.43;8.00;;;2.10;99.90;;;;;;5047414;28;20048;-76
2021/12/01 09:37:13;;;;;;;18.60;9.50;;;2.10;99.90;;;;;;5050680;28;20021;-76
2021/12/01 09:39:39;;;;;;;19.30;9.20;;;2.10;99.90;;;;;;5051068;28;20101;-75
2021/12/01 09:42:04;;;;;;;16.52;7.55;;;2.10;99.90;;;;;;5051058;28;20482;-76
2021/12/01 09:44:31;;;;;;;18.50;8.23;;;2.10;99.90;;;;;;5051162;28;20389;-76
2021/12/01 09:53:41;;;;;;;15.95;8.65;;;2.40;99.90;;;;;;5032459;28;20037;-76
2021/12/01 09:56:06;;;;;;;20.25;11.13;;;2.40;99.90;;;;;;5029083;28;20051;-76
2021/12/01 09:58:32;;;;;;;14.98;8.90;;;2.50;99.90;;;;;;5029559;28;20394;-76
2021/12/01 10:01:02;;;;;;;19.23;8.40;;;2.50;99.90;;;;;;5051010;28;20028;-76
2021/12/01 10:03:28;;;;;;;15.57;8.32;;;2.50;99.90;;;;;;5048779;28;20120;-76
2021/12/01 10:06:03;;;;;;;66.80;26.85;;;2.60;99.90;;;;;;5031051;28;20483;-76
2021/12/01 10:09:01;;;;;;;40.25;17.45;;;2.60;99.90;;;;;;5031046;28;20116;-76
2021/12/01 10:11:32;;;;;;;193.55;82.55;;;2.70;99.90;;;;;;5036254;28;20044;-76
2021/12/01 10:13:59;;;;;;;79.78;33.58;;;2.70;99.90;;;;;;5014544;28;20031;-76
2021/12/01 10:16:32;;;;;;;78.85;35.72;;;2.70;99.90;;;;;;5030874;28;20609;-76
2021/12/01 10:19:00;;;;;;;116.43;52.08;;;2.80;99.90;;;;;;5044337;28;20021;-76
2021/12/01 10:21:30;;;;;;;149.20;67.18;;;2.90;99.90;;;;;;5050981;27;20017;-76
2021/12/01 10:24:00;;;;;;;76.25;35.28;;;3.00;99.90;;;;;;5050564;28;20033;-76
2021/12/01 10:26:29;;;;;;;47.53;19.60;;;3.00;99.90;;;;;;5050592;27;20024;-76
2021/12/01 10:29:01;;;;;;;42.28;17.27;;;3.00;99.90;;;;;;5050507;27;20029;-76
2021/12/01 10:31:52;;;;;;;21.27;9.75;;;3.10;99.90;;;;;;5050392;27;20096;-76
2021/12/01 10:34:19;;;;;;;37.58;20.15;;;3.10;99.90;;;;;;5050188;27;20041;-76
2021/12/01 10:36:48;;;;;;;103.60;52.08;;;3.00;99.90;;;;;;5050400;28;20032;-76
2021/12/01 10:39:14;;;;;;;23.25;11.65;;;2.90;99.90;;;;;;5051688;28;20461;-74
2021/12/01 10:41:41;;;;;;;23.77;10.02;;;2.90;99.90;;;;;;5051705;28;20051;-74
2021/12/01 10:44:15;;;;;;;32.38;15.00;;;2.90;99.90;;;;;;5045769;28;20124;-74
2021/12/01 10:46:48;;;;;;;25.20;13.35;;;2.90;99.90;;;;;;5031800;28;20439;-74
2021/12/01 10:49:14;;;;;;;39.78;15.02;;;2.90;99.90;;;;;;5031461;28;20022;-74
2021/12/01 10:51:43;;;;;;;18.17;8.93;;;2.90;99.90;;;;;;5031665;28;20101;-74
2021/12/01 10:54:18;;;;;;;25.48;9.63;;;2.80;99.90;;;;;;5031632;28;20057;-74
2021/12/01 10:56:45;;;;;;;16.73;10.00;;;2.80;99.90;;;;;;5027127;28;20021;-74
2021/12/01 10:59:14;;;;;;;31.83;15.65;;;2.70;99.90;;;;;;5087873;27;20027;-74
2021/12/01 11:01:40;;;;;;;21.48;9.13;;;2.60;99.90;;;;;;5134387;27;20034;-74
2021/12/01 11:04:06;;;;;;;23.38;10.23;;;2.50;99.90;;;;;;5135507;27;20043;-74
2021/12/01 11:06:38;;;;;;;25.60;12.38;;;2.50;99.90;;;;;;5135557;27;20380;-74
2021/12/01 11:09:04;;;;;;;17.48;9.75;;;2.50;99.90;;;;;;5135453;27;20496;-74
2021/12/01 11:11:42;;;;;;;29.23;13.13;;;2.40;99.90;;;;;;5135437;27;20027;-74
2021/12/01 11:14:14;;;;;;;16.17;7.75;;;2.40;99.90;;;;;;5135516;27;20041;-74
2021/12/01 11:16:41;;;;;;;16.77;7.78;;;2.40;99.90;;;;;;5134119;27;20030;-74
2021/12/01 11:19:08;;;;;;;13.45;7.82;;;2.30;99.90;;;;;;5133979;27;20030;-74
2021/12/01 11:21:35;;;;;;;17.30;7.95;;;2.30;99.90;;;;;;5135163;27;20050;-75
2021/12/01 11:24:09;;;;;;;17.77;9.23;;;2.20;99.90;;;;;;5133790;27;20027;-74
2021/12/01 11:26:36;;;;;;;25.70;11.02;;;2.30;99.90;;;;;;5135095;27;20026;-74
2021/12/01 11:29:12;;;;;;;21.73;8.40;;;2.20;99.90;;;;;;5133664;27;20026;-74
2021/12/01 11:31:43;;;;;;;14.90;6.65;;;2.30;99.90;;;;;;5133778;27;20038;-74
2021/12/01 11:34:12;;;;;;;13.23;7.82;;;2.20;99.90;;;;;;5133656;27;20019;-74
2021/12/01 11:36:44;;;;;;;24.35;12.98;;;2.20;99.90;;;;;;5134945;27;20052;-75
2021/12/01 11:39:17;;;;;;;18.42;9.88;;;2.20;99.90;;;;;;5134982;27;20098;-74
2021/12/01 11:41:45;;;;;;;17.08;9.52;;;2.20;99.90;;;;;;5134893;27;20023;-74
2021/12/01 11:44:13;;;;;;;17.50;8.88;;;2.20;99.90;;;;;;5134946;27;20039;-74
2021/12/01 11:46:39;;;;;;;15.73;8.38;;;2.20;99.90;;;;;;5133468;27;20115;-74
2021/12/01 11:49:13;;;;;;;12.30;7.15;;;2.20;99.90;;;;;;5118667;27;20433;-74
2021/12/01 11:51:58;;;;;;;12.32;7.47;;;2.20;99.90;;;;;;5030726;28;20440;-74
2021/12/01 11:54:25;;;;;;;14.18;6.38;;;2.20;99.90;;;;;;5044726;28;20082;-74
2021/12/01 11:57:04;;;;;;;14.48;8.55;;;2.20;99.90;;;;;;5049282;28;20019;-74
2021/12/01 11:59:37;;;;;;;14.90;6.65;;;2.20;99.90;;;;;;5040697;28;20028;-74
2021/12/01 12:02:15;;;;;;;18.90;8.15;;;2.20;99.90;;;;;;5030642;28;20044;-74
2021/12/01 12:04:43;;;;;;;16.63;7.78;;;2.30;99.90;;;;;;5030368;28;20044;-74
2021/12/01 12:07:15;;;;;;;13.23;7.03;;;2.30;99.90;;;;;;5029226;28;20025;-74
2021/12/01 12:09:42;;;;;;;13.55;7.85;;;2.30;99.90;;;;;;5030351;28;20030;-74
2021/12/01 12:12:17;;;;;;;13.85;9.02;;;2.30;99.90;;;;;;5039559;28;20032;-74
2021/12/01 12:14:45;;;;;;;22.92;9.88;;;2.30;99.90;;;;;;5048983;28;20033;-74
2021/12/01 12:17:18;;;;;;;19.10;9.82;;;2.30;99.90;;;;;;5050224;28;20052;-74
2021/12/01 12:20:02;;;;;;;16.75;7.85;;;2.30;99.90;;;;;;5048814;28;20025;-74
2021/12/01 12:22:42;;;;;;;21.42;10.85;;;2.30;99.90;;;;;;5048905;28;20569;-74
2021/12/01 12:25:39;;;;;;;18.63;11.15;;;2.40;99.90;;;;;;5050088;28;20041;-74
2021/12/01 12:28:26;;;;;;;23.45;12.07;;;2.40;99.90;;;;;;5041437;28;20029;-75
2021/12/01 12:31:14;;;;;;;26.13;13.40;;;2.30;99.90;;;;;;5050127;28;20017;-74
2021/12/01 12:33:50;;;;;;;28.08;13.73;;;2.30;99.90;;;;;;5039445;28;20431;-74
2021/12/01 12:36:15;;;;;;;28.70;17.38;;;2.20;99.90;;;;;;5050061;28;20474;-75
2021/12/01 12:39:03;;;;;;;28.15;15.02;;;2.20;99.90;;;;;;5048681;28;20031;-75
2021/12/01 12:41:28;;;;;;;20.25;10.35;;;2.20;99.90;;;;;;5030068;28;20108;-74
2021/12/01 12:43:54;;;;;;;18.50;9.68;;;2.10;99.90;;;;;;5028658;28;20108;-74
2021/12/01 12:46:20;;;;;;;19.55;9.95;;;2.10;99.90;;;;;;5027412;28;20037;-75
2021/12/01 12:48:51;;;;;;;20.02;10.45;;;2.10;99.90;;;;;;5046249;28;20070;-75
2021/12/01 12:51:25;;;;;;;21.30;11.77;;;2.10;99.90;;;;;;5048539;28;20017;-74
2021/12/01 12:54:00;;;;;;;21.88;10.38;;;2.10;99.90;;;;;;5047920;28;20108;-75
2021/12/01 12:56:37;;;;;;;43.75;18.45;;;2.10;99.90;;;;;;5047073;28;20061;-75
2021/12/01 12:59:32;;;;;;;21.73;11.38;;;2.10;99.90;;;;;;5047831;28;20057;-75